Time;durP1;ratioP1;P1;durP2;ratioP2;P2;SDS_P1;SDS_P2;PMS_P1;PMS_P2;Temp;Humidity;BMP_temperature;BMP_pressure;BME280_temperature;BME280_humidity;BME280_pressure;Samples;Min_cycle;Max_cycle;Signal;HPM_P1;HPM_P2
2022/03/02 00:02:13;;;;;;;27.83;13.02;;;;;;;5.73;68.15;102285.03;5061984;28;20085;-74
2022/03/02 00:04:39;;;;;;;28.02;12.02;;;;;;;5.74;68.79;102283.13;5065724;28;20045;-77
2022/03/02 00:07:06;;;;;;;27.92;11.50;;;;;;;5.76;70.05;102280.81;5063264;28;20048;-75
2022/03/02 00:09:32;;;;;;;27.13;11.38;;;;;;;5.78;70.60;102284.88;5066397;28;20048;-74
2022/03/02 00:11:59;;;;;;;29.38;11.90;;;;;;;5.78;69.63;102284.06;5066769;28;20050;-74
2022/03/02 00:14:26;;;;;;;24.30;10.70;;;;;;;5.76;69.99;102289.88;5065727;28;20048;-77
2022/03/02 00:16:53;;;;;;;26.75;11.45;;;;;;;5.76;69.35;102286.31;5065714;28;20056;-73
2022/03/02 00:19:20;;;;;;;25.52;11.95;;;;;;;5.74;69.84;102291.34;5065018;28;20048;-74
2022/03/02 00:21:47;;;;;;;26.10;11.63;;;;;;;5.73;69.04;102282.28;5066118;28;20068;-73
2022/03/02 00:24:13;;;;;;;27.45;11.45;;;;;;;5.71;68.71;102279.09;5059673;28;20047;-75
2022/03/02 00:26:40;;;;;;;24.85;11.13;;;;;;;5.70;68.49;102282.16;5064452;28;20045;-74
2022/03/02 00:29:06;;;;;;;25.73;11.15;;;;;;;5.66;67.80;102276.50;5066781;28;20055;-75
2022/03/02 00:31:33;;;;;;;29.30;11.65;;;;;;;5.66;67.27;102279.25;5065169;28;20083;-75
2022/03/02 00:34:00;;;;;;;24.45;11.05;;;;;;;5.62;68.19;102271.97;5058496;28;20059;-76
2022/03/02 00:36:26;;;;;;;29.92;11.80;;;;;;;5.60;68.65;102271.53;5066053;28;20087;-76
2022/03/02 00:38:53;;;;;;;25.67;11.57;;;;;;;5.59;68.53;102272.63;5066066;28;20048;-73
2022/03/02 00:41:20;;;;;;;27.85;11.85;;;;;;;5.54;68.74;102265.41;5062628;28;20101;-74
2022/03/02 00:43:47;;;;;;;23.83;10.80;;;;;;;5.56;69.71;102270.56;5064737;28;20083;-75
2022/03/02 00:46:16;;;;;;;27.05;11.88;;;;;;;5.55;70.23;102268.94;5063508;28;20044;-78
2022/03/02 00:48:42;;;;;;;28.27;11.70;;;;;;;5.52;70.03;102264.09;5060623;28;20513;-74
2022/03/02 00:51:10;;;;;;;26.40;11.98;;;;;;;5.52;70.39;102264.91;5066721;28;20135;-76
2022/03/02 00:53:39;;;;;;;25.48;10.63;;;;;;;5.51;70.86;102262.47;5066019;28;20485;-74
2022/03/02 00:56:06;;;;;;;23.48;11.43;;;;;;;5.44;71.23;102257.50;5064643;28;20075;-76
2022/03/02 00:58:32;;;;;;;28.27;11.32;;;;;;;5.40;71.02;102260.06;5065434;28;20094;-77
2022/03/02 01:00:59;;;;;;;25.70;10.95;;;;;;;5.41;71.67;102260.91;5064396;28;20084;-74
2022/03/02 01:03:26;;;;;;;23.45;11.40;;;;;;;5.40;71.93;102254.59;5066293;28;20087;-75
2022/03/02 01:05:52;;;;;;;24.00;11.05;;;;;;;5.36;72.58;102242.66;5062806;28;20040;-75
2022/03/02 01:08:19;;;;;;;24.70;11.15;;;;;;;5.34;73.24;102250.38;5064490;28;20114;-73
2022/03/02 01:10:46;;;;;;;25.73;11.52;;;;;;;5.30;73.08;102251.38;5065533;28;20105;-79
2022/03/02 01:13:13;;;;;;;23.23;11.15;;;;;;;5.26;72.97;102236.69;5066328;28;20049;-75
2022/03/02 01:15:39;;;;;;;28.45;12.73;;;;;;;5.21;72.03;102232.19;5062319;28;20116;-75
2022/03/02 01:18:06;;;;;;;29.48;11.95;;;;;;;5.17;71.99;102233.94;5070280;28;20048;-76
2022/03/02 01:20:32;;;;;;;29.50;12.00;;;;;;;5.08;73.28;102233.16;5069465;28;20079;-75
2022/03/02 01:22:59;;;;;;;25.42;11.88;;;;;;;5.04;75.44;102232.16;5067061;28;20139;-74
2022/03/02 01:25:25;;;;;;;26.30;10.85;;;;;;;5.01;75.13;102229.28;5064913;28;20052;-75
2022/03/02 01:27:52;;;;;;;25.90;11.55;;;;;;;4.98;74.15;102232.66;5067437;28;20669;-75
2022/03/02 01:30:19;;;;;;;28.35;11.85;;;;;;;4.94;74.16;102226.22;5061197;28;20126;-77
2022/03/02 01:32:45;;;;;;;24.55;11.00;;;;;;;4.87;72.93;102217.69;5066945;28;20131;-76
2022/03/02 01:35:12;;;;;;;27.75;11.80;;;;;;;4.83;74.97;102222.19;5064588;28;20071;-75
2022/03/02 01:37:39;;;;;;;27.77;12.55;;;;;;;4.79;74.94;102215.72;5066186;28;20150;-76
2022/03/02 01:40:09;;;;;;;30.25;12.13;;;;;;;4.71;75.77;102219.28;5064947;28;20053;-78
2022/03/02 01:42:38;;;;;;;30.10;11.43;;;;;;;4.64;77.98;102218.94;5065341;28;20045;-76
2022/03/02 01:45:06;;;;;;;22.92;10.07;;;;;;;4.63;76.85;102215.38;5069065;28;20123;-76
2022/03/02 01:47:33;;;;;;;26.30;10.30;;;;;;;4.61;76.09;102216.84;5066112;28;20044;-74
2022/03/02 01:50:00;;;;;;;26.05;11.82;;;;;;;4.58;74.63;102214.75;5066107;28;20056;-78
2022/03/02 01:52:27;;;;;;;25.67;11.27;;;;;;;4.54;74.21;102206.38;5064907;28;20275;-75
2022/03/02 01:54:53;;;;;;;32.30;11.40;;;;;;;4.45;74.87;102205.53;5064661;28;20626;-74
2022/03/02 01:57:20;;;;;;;25.75;11.85;;;;;;;4.39;75.85;102198.59;5069045;28;20118;-75
2022/03/02 01:59:47;;;;;;;23.55;10.70;;;;;;;4.39;77.77;102197.81;5064400;28;20143;-80
2022/03/02 02:02:13;;;;;;;25.70;11.40;;;;;;;4.33;76.95;102194.41;5061525;28;20110;-74
2022/03/02 02:04:40;;;;;;;26.27;10.55;;;;;;;4.26;77.02;102196.00;5066156;28;20612;-76
2022/03/02 02:07:07;;;;;;;27.70;12.75;;;;;;;4.25;76.94;102192.44;5059926;28;20047;-75
2022/03/02 02:09:33;;;;;;;27.73;12.02;;;;;;;4.21;77.14;102186.00;5065534;28;20133;-75
2022/03/02 02:12:00;;;;;;;28.00;11.85;;;;;;;4.18;76.01;102192.09;5067693;28;20879;-77
2022/03/02 02:14:27;;;;;;;26.20;12.10;;;;;;;4.13;76.28;102186.78;5067302;28;20080;-75
2022/03/02 02:16:54;;;;;;;26.25;12.00;;;;;;;4.08;78.31;102178.72;5066805;28;20493;-78
2022/03/02 02:19:21;;;;;;;27.30;11.55;;;;;;;4.04;79.09;102191.44;5067877;28;20056;-75
2022/03/02 02:21:48;;;;;;;27.42;11.80;;;;;;;4.02;80.68;102188.19;5062100;28;20059;-74
2022/03/02 02:24:16;;;;;;;29.63;12.20;;;;;;;4.04;82.01;102194.16;5069302;28;20501;-77
2022/03/02 02:26:42;;;;;;;24.85;11.05;;;;;;;4.06;80.68;102196.59;5066441;28;20075;-77
2022/03/02 02:29:31;;;;;;;26.25;10.75;;;;;;;4.01;79.49;102186.59;5065948;28;20497;-75
2022/03/02 02:31:57;;;;;;;26.17;11.13;;;;;;;3.98;78.96;102181.75;5064856;28;20131;-76
2022/03/02 02:34:24;;;;;;;25.25;10.95;;;;;;;3.97;78.64;102176.56;5067766;28;20047;-75
2022/03/02 02:36:51;;;;;;;26.08;11.57;;;;;;;3.94;78.76;102167.06;5066559;28;20048;-78
2022/03/02 02:39:18;;;;;;;26.60;11.38;;;;;;;3.88;79.73;102165.59;5062413;28;20056;-74
2022/03/02 02:41:44;;;;;;;26.92;10.63;;;;;;;3.89;80.19;102169.97;5068278;28;20512;-78
2022/03/02 02:44:11;;;;;;;28.10;11.80;;;;;;;3.87;79.60;102161.25;5066853;28;20140;-77
2022/03/02 02:46:42;;;;;;;22.30;10.30;;;;;;;3.89;79.41;102159.03;5068380;28;20139;-76
2022/03/02 02:49:09;;;;;;;23.67;10.93;;;;;;;3.90;79.43;102157.88;5069457;28;20106;-77
2022/03/02 02:51:36;;;;;;;27.95;11.45;;;;;;;3.89;78.24;102155.47;5068203;28;20524;-76
2022/03/02 02:54:03;;;;;;;25.88;11.65;;;;;;;3.89;77.78;102155.47;5067051;28;20108;-76
2022/03/02 02:56:29;;;;;;;27.70;12.07;;;;;;;3.83;77.65;102149.31;5065913;28;20147;-79
2022/03/02 02:58:56;;;;;;;27.38;11.30;;;;;;;3.83;76.14;102157.53;5067644;28;20048;-75
2022/03/02 03:01:23;;;;;;;29.15;12.25;;;;;;;3.80;77.06;102154.63;5069272;28;20510;-75
2022/03/02 03:03:50;;;;;;;30.73;13.27;;;;;;;3.81;76.88;102161.72;5069710;28;20131;-76
2022/03/02 03:06:17;;;;;;;29.45;12.32;;;;;;;3.79;78.77;102156.56;5069129;28;20063;-75
2022/03/02 03:08:43;;;;;;;32.17;12.50;;;;;;;3.75;79.05;102155.56;5070022;28;20131;-74
2022/03/02 03:11:10;;;;;;;24.70;11.45;;;;;;;3.78;78.96;102154.94;5067037;28;20394;-76
2022/03/02 03:13:36;;;;;;;30.23;11.93;;;;;;;3.75;77.75;102157.50;5069373;28;20413;-76
2022/03/02 03:16:03;;;;;;;31.30;11.90;;;;;;;3.80;77.32;102149.16;5068933;28;20054;-75
2022/03/02 03:18:30;;;;;;;34.45;12.80;;;;;;;3.74;76.72;102153.19;5066643;28;20855;-76
2022/03/02 03:20:56;;;;;;;28.15;11.40;;;;;;;3.72;77.35;102156.22;5069098;28;20131;-79
2022/03/02 03:23:23;;;;;;;30.73;11.65;;;;;;;3.73;77.30;102151.53;5069373;28;20049;-76
2022/03/02 03:25:50;;;;;;;25.27;12.55;;;;;;;3.72;76.42;102149.94;5068519;28;20604;-74
2022/03/02 03:28:16;;;;;;;25.77;11.18;;;;;;;3.68;77.08;102159.91;5068224;28;20135;-75
2022/03/02 03:30:43;;;;;;;27.63;10.18;;;;;;;3.65;76.53;102149.59;5068647;28;20049;-75
2022/03/02 03:33:09;;;;;;;24.48;11.55;;;;;;;3.64;75.67;102148.78;5067309;28;20059;-74
2022/03/02 03:35:36;;;;;;;30.55;12.20;;;;;;;3.62;75.69;102148.28;5067486;28;20048;-74
2022/03/02 03:38:03;;;;;;;26.58;11.88;;;;;;;3.62;75.73;102153.78;5067531;28;20045;-75
2022/03/02 03:40:30;;;;;;;30.85;12.38;;;;;;;3.60;76.61;102153.28;5063625;28;20148;-74
2022/03/02 03:42:56;;;;;;;26.00;11.82;;;;;;;3.57;76.00;102151.16;5068261;28;20147;-74
2022/03/02 03:45:23;;;;;;;29.25;11.50;;;;;;;3.46;77.90;102146.28;5067728;28;20041;-77
2022/03/02 03:47:50;;;;;;;32.47;13.18;;;;;;;3.38;79.07;102142.41;5067342;28;20059;-75
2022/03/02 03:50:17;;;;;;;29.65;11.70;;;;;;;3.40;79.62;102136.59;5063408;28;20126;-75
2022/03/02 03:52:44;;;;;;;25.75;11.52;;;;;;;3.42;79.23;102140.63;5066270;28;20456;-76
2022/03/02 03:55:12;;;;;;;28.48;12.43;;;;;;;3.44;78.18;102143.06;5067326;28;20052;-76
2022/03/02 03:57:40;;;;;;;28.65;12.80;;;;;;;3.42;78.91;102139.81;5068316;28;20402;-77
2022/03/02 04:00:09;;;;;;;26.90;11.05;;;;;;;3.43;79.04;102142.25;5068118;28;20090;-76
2022/03/02 04:02:36;;;;;;;30.80;13.20;;;;;;;3.38;79.20;102127.91;5067815;28;20063;-74
2022/03/02 04:05:03;;;;;;;28.52;11.70;;;;;;;3.39;79.16;102133.06;5067843;28;20048;-75
2022/03/02 04:07:30;;;;;;;27.42;13.00;;;;;;;3.37;79.72;102120.81;5063096;28;20815;-78
2022/03/02 04:09:57;;;;;;;26.10;11.93;;;;;;;3.36;79.93;102125.47;5069599;28;20142;-75
2022/03/02 04:12:23;;;;;;;35.75;12.75;;;;;;;3.35;79.65;102126.59;5067096;28;20052;-74
2022/03/02 04:14:50;;;;;;;26.73;11.15;;;;;;;3.37;80.88;102120.81;5066014;28;20592;-74
2022/03/02 04:17:16;;;;;;;30.65;13.05;;;;;;;3.30;79.57;102115.78;5068231;28;20135;-77
2022/03/02 04:19:44;;;;;;;29.90;12.48;;;;;;;3.31;78.86;102124.81;5066955;28;20060;-74
2022/03/02 04:22:10;;;;;;;33.47;12.82;;;;;;;3.23;78.64;102115.44;5067711;28;20066;-75
2022/03/02 04:24:37;;;;;;;31.67;11.80;;;;;;;3.25;78.42;102117.84;5067979;28;20048;-75
2022/03/02 04:27:03;;;;;;;28.25;12.27;;;;;;;3.22;77.87;102122.03;5068280;28;20144;-74
2022/03/02 04:29:30;;;;;;;32.25;13.02;;;;;;;3.15;77.93;102116.19;5066562;28;20063;-76
2022/03/02 04:31:57;;;;;;;29.05;13.20;;;;;;;3.10;78.61;102110.06;5061393;28;20044;-74
2022/03/02 04:34:23;;;;;;;31.50;12.00;;;;;;;3.07;79.06;102106.00;5067692;28;20414;-75
2022/03/02 04:36:50;;;;;;;28.90;12.45;;;;;;;3.05;78.87;102111.00;5065789;28;20762;-75
2022/03/02 04:39:16;;;;;;;28.05;14.10;;;;;;;3.02;79.91;102108.88;5067218;28;20490;-74
2022/03/02 04:41:43;;;;;;;24.85;11.90;;;;;;;3.00;80.40;102119.31;5066918;28;20709;-74
2022/03/02 04:44:10;;;;;;;29.40;12.27;;;;;;;2.97;80.35;102111.75;5066301;28;20056;-76
2022/03/02 04:46:37;;;;;;;29.02;13.18;;;;;;;2.89;80.81;102101.56;5066554;28;20056;-74
2022/03/02 04:49:10;;;;;;;31.10;13.48;;;;;;;2.91;80.87;102109.47;5063067;28;20082;-75
2022/03/02 04:51:40;;;;;;;28.52;11.05;;;;;;;2.87;81.61;102105.75;5067030;28;20561;-74
2022/03/02 04:54:07;;;;;;;28.48;13.07;;;;;;;2.81;83.03;102107.78;5071578;28;20143;-74
2022/03/02 04:56:34;;;;;;;29.75;11.95;;;;;;;2.82;83.86;102108.59;5071707;28;20048;-79
2022/03/02 04:59:01;;;;;;;30.50;12.57;;;;;;;2.76;84.10;102102.44;5071331;28;20057;-74
2022/03/02 05:01:28;;;;;;;29.67;13.27;;;;;;;2.74;85.70;102101.97;5071653;28;20135;-74
2022/03/02 05:03:55;;;;;;;31.63;13.10;;;;;;;2.70;83.74;102104.50;5070848;28;20770;-74
2022/03/02 05:06:22;;;;;;;30.70;13.05;;;;;;;2.69;84.06;102102.88;5071404;28;20135;-76
2022/03/02 05:08:48;;;;;;;31.45;12.32;;;;;;;2.67;84.11;102098.88;5072015;28;20104;-75
2022/03/02 05:11:15;;;;;;;27.48;13.50;;;;;;;2.60;84.65;102093.03;5070692;28;20056;-76
2022/03/02 05:13:42;;;;;;;32.28;13.10;;;;;;;2.58;85.78;102093.34;5071825;28;20048;-75
2022/03/02 05:16:08;;;;;;;28.70;12.55;;;;;;;2.61;85.56;102097.38;5069457;28;20057;-74
2022/03/02 05:18:35;;;;;;;28.65;14.07;;;;;;;2.58;83.86;102092.53;5070492;28;20060;-75
2022/03/02 05:21:01;;;;;;;28.40;13.15;;;;;;;2.57;83.66;102099.09;5069504;28;20098;-75
2022/03/02 05:23:28;;;;;;;33.78;13.88;;;;;;;2.55;83.85;102093.94;5069521;28;20056;-74
2022/03/02 05:25:55;;;;;;;29.52;13.27;;;;;;;2.54;82.84;102097.00;5061394;28;20127;-76
2022/03/02 05:28:21;;;;;;;30.95;13.88;;;;;;;2.48;84.03;102099.03;5069786;28;20136;-75
2022/03/02 05:30:48;;;;;;;30.88;13.90;;;;;;;2.43;83.70;102087.44;5069366;28;20127;-74
2022/03/02 05:33:14;;;;;;;34.95;15.27;;;;;;;2.40;85.45;102090.78;5070382;28;20421;-73
2022/03/02 05:35:41;;;;;;;27.83;13.75;;;;;;;2.38;87.45;102093.00;5070827;28;20689;-74
2022/03/02 05:38:07;;;;;;;29.85;13.13;;;;;;;2.37;88.44;102085.94;5070544;28;20052;-75
2022/03/02 05:40:34;;;;;;;39.15;13.85;;;;;;;2.42;88.01;102091.25;5070646;28;20483;-74
2022/03/02 05:43:01;;;;;;;36.58;14.63;;;;;;;2.36;85.99;102079.66;5070084;28;20064;-76
2022/03/02 05:45:27;;;;;;;33.63;16.25;;;;;;;2.37;85.30;102083.19;5068654;28;20048;-74
2022/03/02 05:47:54;;;;;;;31.75;15.25;;;;;;;2.33;85.94;102072.06;5070586;28;20052;-75
2022/03/02 05:50:21;;;;;;;32.55;16.27;;;;;;;2.31;86.97;102079.78;5070220;28;20052;-75
2022/03/02 05:52:47;;;;;;;39.30;17.90;;;;;;;2.29;87.54;102083.91;5069853;28;20524;-73
2022/03/02 05:55:14;;;;;;;34.95;17.80;;;;;;;2.28;88.21;102088.59;5069735;28;20049;-75
2022/03/02 05:57:41;;;;;;;31.58;15.75;;;;;;;2.27;88.75;102077.97;5070098;28;20099;-75
2022/03/02 06:00:08;;;;;;;30.85;16.17;;;;;;;2.32;89.35;102091.50;5070394;28;20087;-75
2022/03/02 06:02:35;;;;;;;34.67;17.25;;;;;;;2.35;87.25;102088.97;5069187;28;20459;-74
2022/03/02 06:05:02;;;;;;;35.28;17.08;;;;;;;2.31;85.93;102087.97;5067629;28;20055;-74
2022/03/02 06:07:28;;;;;;;37.40;17.45;;;;;;;2.37;85.91;102096.84;5064816;28;20040;-75
2022/03/02 06:09:55;;;;;;;34.70;17.02;;;;;;;2.37;85.57;102094.13;5071542;28;20111;-74
2022/03/02 06:12:22;;;;;;;32.00;15.07;;;;;;;2.43;86.02;102096.41;5069446;28;20159;-73
2022/03/02 06:14:49;;;;;;;32.47;15.32;;;;;;;2.42;86.52;102083.88;5068601;28;20218;-75
2022/03/02 06:17:16;;;;;;;36.65;15.82;;;;;;;2.52;86.21;102085.56;5068508;28;20577;-73
2022/03/02 06:19:43;;;;;;;34.30;15.77;;;;;;;2.53;84.95;102076.22;5070039;28;20056;-75
2022/03/02 06:22:10;;;;;;;30.95;14.95;;;;;;;2.57;84.25;102088.19;5069639;28;20060;-73
2022/03/02 06:24:37;;;;;;;31.30;14.60;;;;;;;2.62;84.48;102097.06;5068690;28;20162;-74
2022/03/02 06:27:04;;;;;;;33.10;16.50;;;;;;;2.61;84.43;102097.38;5068927;28;20128;-74
2022/03/02 06:29:31;;;;;;;36.58;15.88;;;;;;;2.63;84.80;102093.19;5069911;28;20058;-74
2022/03/02 06:31:57;;;;;;;33.90;15.50;;;;;;;2.65;84.15;102098.34;5069311;28;20057;-75
2022/03/02 06:34:24;;;;;;;33.55;16.27;;;;;;;2.64;84.56;102094.00;5070174;28;20044;-74
2022/03/02 06:36:51;;;;;;;33.63;14.60;;;;;;;2.65;85.25;102092.88;5068670;28;20513;-77
2022/03/02 06:39:22;;;;;;;38.47;16.52;;;;;;;2.64;84.31;102089.34;5068787;28;20060;-73
2022/03/02 06:42:11;;;;;;;33.33;16.25;;;;;;;2.66;83.48;102105.44;5069341;28;20049;-74
2022/03/02 06:44:49;;;;;;;33.75;15.25;;;;;;;2.64;84.14;102097.53;5070066;28;20185;-75
2022/03/02 06:47:19;;;;;;;34.15;16.60;;;;;;;2.67;85.07;102096.91;5069584;28;20142;-75
2022/03/02 06:49:55;;;;;;;38.75;17.27;;;;;;;2.70;85.64;102100.94;5067418;28;20067;-74
2022/03/02 06:52:27;;;;;;;39.83;17.65;;;;;;;2.72;86.77;102098.72;5068477;28;20076;-76
2022/03/02 06:54:56;;;;;;;34.03;16.52;;;;;;;2.78;87.44;102104.88;5069898;28;20146;-74
2022/03/02 06:57:27;;;;;;;36.63;16.90;;;;;;;2.82;86.13;102109.41;5068311;28;20151;-74
2022/03/02 07:00:04;;;;;;;35.30;16.65;;;;;;;2.87;85.08;102103.78;5069311;28;20052;-75
2022/03/02 07:02:51;;;;;;;35.15;16.35;;;;;;;2.87;84.10;102100.28;5067554;28;20063;-78
2022/03/02 07:05:20;;;;;;;44.92;17.95;;;;;;;2.92;83.59;102098.22;5069632;28;20048;-74
2022/03/02 07:07:47;;;;;;;43.40;19.35;;;;;;;2.94;84.20;102095.97;5065539;28;20076;-75
2022/03/02 07:10:15;;;;;;;41.53;17.67;;;;;;;3.02;84.55;102099.88;5070491;28;20048;-75
2022/03/02 07:12:42;;;;;;;38.50;17.75;;;;;;;3.05;84.98;102091.84;5070276;28;20068;-74
2022/03/02 07:15:09;;;;;;;37.67;18.13;;;;;;;3.14;85.29;102095.41;5066657;28;20121;-75
2022/03/02 07:17:37;;;;;;;33.22;15.52;;;;;;;3.25;85.03;102101.44;5069000;28;20052;-74
2022/03/02 07:20:08;;;;;;;38.85;17.42;;;;;;;3.32;84.40;102097.13;5069337;28;20135;-75
2022/03/02 07:22:40;;;;;;;33.33;17.00;;;;;;;3.39;83.36;102092.00;5066076;28;20135;-74
2022/03/02 07:25:16;;;;;;;36.97;17.90;;;;;;;3.47;82.63;102087.72;5067815;28;20052;-74
2022/03/02 07:27:42;;;;;;;35.45;17.27;;;;;;;3.61;82.30;102091.91;5068814;28;20058;-74
2022/03/02 07:30:10;;;;;;;43.83;17.25;;;;;;;3.73;81.83;102097.59;5067445;28;20150;-73
2022/03/02 07:32:41;;;;;;;41.10;17.30;;;;;;;3.83;81.45;102096.50;5061595;28;20057;-75
2022/03/02 07:35:08;;;;;;;37.28;16.98;;;;;;;3.97;79.98;102094.41;5065001;28;20052;-75
2022/03/02 07:37:36;;;;;;;35.33;16.15;;;;;;;4.08;79.43;102087.53;5068927;28;20044;-74
2022/03/02 07:40:04;;;;;;;33.15;18.10;;;;;;;4.22;77.55;102086.22;5066194;28;20072;-74
2022/03/02 07:42:32;;;;;;;37.72;17.52;;;;;;;4.31;76.97;102080.75;5070097;28;20087;-76
2022/03/02 07:44:59;;;;;;;36.17;16.60;;;;;;;4.46;76.24;102091.25;5072953;28;20045;-77
2022/03/02 07:47:26;;;;;;;35.65;15.43;;;;;;;4.55;75.79;102090.09;5067594;28;20461;-76
2022/03/02 07:49:53;;;;;;;32.85;16.17;;;;;;;4.67;73.86;102090.25;5063484;28;20500;-75
2022/03/02 07:52:25;;;;;;;34.17;14.80;;;;;;;4.73;72.88;102083.47;5069176;28;20072;-76
2022/03/02 07:54:57;;;;;;;30.55;14.48;;;;;;;4.88;72.14;102095.84;5069544;28;20139;-74
2022/03/02 07:57:24;;;;;;;32.03;15.50;;;;;;;4.96;71.68;102093.09;5068599;28;20036;-78
2022/03/02 07:59:54;;;;;;;34.67;15.95;;;;;;;5.05;70.35;102087.59;5067742;28;20058;-76
2022/03/02 08:02:23;;;;;;;38.22;14.98;;;;;;;5.14;69.26;102093.88;5068799;28;20071;-80
2022/03/02 08:04:54;;;;;;;35.08;15.82;;;;;;;5.22;68.32;102091.09;5068704;28;20056;-76
2022/03/02 08:07:22;;;;;;;32.50;14.10;;;;;;;5.30;67.13;102083.97;5067725;28;20049;-78
2022/03/02 08:09:52;;;;;;;30.00;13.30;;;;;;;5.38;67.16;102083.94;5068957;28;20052;-77
2022/03/02 08:12:23;;;;;;;31.40;12.70;;;;;;;5.47;65.69;102083.09;5068178;28;20109;-76
2022/03/02 08:14:51;;;;;;;34.00;13.77;;;;;;;5.57;64.52;102085.47;5067213;28;20045;-77
2022/03/02 08:17:19;;;;;;;29.45;12.63;;;;;;;5.62;63.72;102074.28;5066794;28;20121;-77
2022/03/02 08:19:49;;;;;;;30.27;14.55;;;;;;;5.69;62.69;102071.81;5057913;28;20110;-78
2022/03/02 08:22:19;;;;;;;30.98;12.43;;;;;;;5.80;61.22;102073.06;5066098;28;20052;-78
2022/03/02 08:25:00;;;;;;;29.80;12.95;;;;;;;5.86;61.30;102061.56;5066816;28;20052;-77
2022/03/02 08:27:29;;;;;;;30.70;12.88;;;;;;;5.95;61.46;102067.00;5070226;28;20860;-77
2022/03/02 08:29:57;;;;;;;28.15;11.55;;;;;;;6.08;60.57;102076.94;5067704;28;20102;-78
2022/03/02 08:32:25;;;;;;;30.42;11.93;;;;;;;6.17;59.61;102077.69;5070700;28;20048;-79
2022/03/02 08:34:52;;;;;;;26.70;10.45;;;;;;;6.26;58.25;102076.47;5074561;28;20057;-78
2022/03/02 08:37:19;;;;;;;30.20;11.32;;;;;;;6.32;57.40;102068.81;5058723;28;20049;-76
2022/03/02 08:39:48;;;;;;;26.98;12.00;;;;;;;6.48;55.95;102078.06;5068791;28;20060;-76
2022/03/02 08:42:15;;;;;;;26.25;11.73;;;;;;;6.59;54.96;102080.06;5071052;28;20048;-76
2022/03/02 08:44:45;;;;;;;25.67;11.65;;;;;;;6.68;54.20;102083.53;5072180;28;20052;-75
2022/03/02 08:47:12;;;;;;;31.60;12.70;;;;;;;6.82;55.07;102072.25;5071716;28;20102;-76
2022/03/02 08:49:39;;;;;;;32.05;12.60;;;;;;;6.95;54.23;102065.63;5070710;28;20098;-76
2022/03/02 08:52:07;;;;;;;33.33;12.95;;;;;;;7.02;54.68;102076.88;5070865;28;20052;-76
2022/03/02 08:54:45;;;;;;;23.75;10.82;;;;;;;7.13;53.37;102070.56;5065165;28;20063;-74
2022/03/02 08:57:13;;;;;;;27.30;11.25;;;;;;;7.24;53.33;102068.19;5069181;28;20048;-75
2022/03/02 08:59:41;;;;;;;26.75;12.45;;;;;;;7.31;52.66;102065.69;5069383;28;20102;-75
2022/03/02 09:02:09;;;;;;;32.97;13.25;;;;;;;7.43;52.60;102054.69;5068814;28;20143;-77
2022/03/02 09:04:37;;;;;;;25.58;9.70;;;;;;;7.58;51.61;102060.31;5065619;28;20052;-77
2022/03/02 09:07:05;;;;;;;31.10;11.77;;;;;;;7.67;50.82;102054.69;5063317;28;20126;-79
2022/03/02 09:09:32;;;;;;;27.10;11.40;;;;;;;7.82;51.76;102056.72;5069355;28;20056;-70
2022/03/02 09:11:59;;;;;;;26.48;11.65;;;;;;;7.89;52.38;102035.69;5061057;28;20055;-79
2022/03/02 09:14:26;;;;;;;23.73;11.18;;;;;;;8.03;50.24;102046.34;5057901;28;20525;-77
2022/03/02 09:16:53;;;;;;;21.65;10.45;;;;;;;8.12;50.07;102043.44;5057372;28;20494;-78
2022/03/02 09:19:20;;;;;;;27.95;11.68;;;;;;;8.23;49.93;102042.66;5064287;28;20052;-79
2022/03/02 09:21:47;;;;;;;23.15;11.70;;;;;;;8.31;49.00;102041.72;5051725;28;20125;-77
2022/03/02 09:24:14;;;;;;;24.27;10.52;;;;;;;8.43;49.28;102044.41;5061661;28;20506;-77
2022/03/02 09:26:42;;;;;;;21.67;10.80;;;;;;;8.54;48.76;102048.25;5067451;28;20052;-78
2022/03/02 09:29:09;;;;;;;23.75;11.50;;;;;;;8.62;48.59;102041.81;5064825;28;20052;-76
2022/03/02 09:31:36;;;;;;;23.75;9.95;;;;;;;8.75;47.46;102053.59;5070877;28;20131;-79
2022/03/02 09:34:08;;;;;;;27.45;11.85;;;;;;;8.79;47.35;102049.78;5069427;28;21060;-76
2022/03/02 09:36:38;;;;;;;26.75;10.52;;;;;;;8.93;47.76;102050.16;5056130;28;20127;-79
2022/03/02 09:39:07;;;;;;;25.05;11.25;;;;;;;9.00;47.20;102047.56;5047521;28;20144;-77
2022/03/02 09:41:48;;;;;;;24.67;11.50;;;;;;;9.10;47.02;102047.06;5062528;28;20830;-78
2022/03/02 09:44:19;;;;;;;12.05;6.30;;;;;;;9.18;46.18;102054.34;5068595;28;20558;-79
2022/03/02 09:46:55;;;;;;;27.25;10.73;;;;;;;9.30;46.65;102047.94;5066714;28;20634;-77
2022/03/02 09:49:23;;;;;;;37.03;14.63;;;;;;;9.39;46.98;102054.88;5062732;28;20064;-77
2022/03/02 09:51:58;;;;;;;24.90;12.32;;;;;;;9.43;46.07;102055.78;5069197;28;20045;-76
2022/03/02 09:54:25;;;;;;;23.92;11.52;;;;;;;9.56;47.15;102049.00;5067104;28;20041;-77
2022/03/02 09:56:53;;;;;;;25.90;12.38;;;;;;;9.69;47.29;102049.72;5068017;28;20571;-77
2022/03/02 09:59:24;;;;;;;24.27;9.95;;;;;;;9.83;46.73;102052.78;5066382;28;20493;-77
2022/03/02 10:01:52;;;;;;;24.42;11.05;;;;;;;9.95;46.62;102036.88;5066870;28;20131;-77
2022/03/02 10:04:21;;;;;;;23.45;10.60;;;;;;;10.08;45.81;102043.09;5070264;28;20366;-78
2022/03/02 10:07:26;;;;;;;23.70;11.45;;;;;;;10.17;45.63;102052.78;5066234;28;20048;-80
2022/03/02 10:09:51;;;;;;;24.38;10.30;;;;;;;10.28;45.22;102047.50;5056142;28;20067;-79
2022/03/02 10:12:20;;;;;;;26.92;11.70;;;;;;;10.40;44.34;102048.16;5050199;28;20179;-75
2022/03/02 10:14:50;;;;;;;24.70;10.93;;;;;;;10.51;45.06;102040.06;5056640;28;20087;-76
2022/03/02 10:17:19;;;;;;;23.13;8.75;;;;;;;10.64;44.33;102043.50;5061090;28;20080;-75
2022/03/02 10:19:53;;;;;;;23.75;11.07;;;;;;;10.74;44.28;102031.81;5061619;28;20048;-77
2022/03/02 10:22:41;;;;;;;21.20;10.27;;;;;;;10.80;43.63;102033.13;5057440;28;20052;-79
2022/03/02 10:25:11;;;;;;;25.35;12.80;;;;;;;10.82;44.17;102039.91;5050210;28;20056;-77
2022/03/02 10:28:06;;;;;;;24.27;12.02;;;;;;;10.92;44.21;102033.75;5064379;28;20045;-75
2022/03/02 10:30:38;;;;;;;25.77;11.20;;;;;;;11.07;43.06;102026.50;5063044;28;20114;-77
2022/03/02 10:33:20;;;;;;;23.98;10.60;;;;;;;11.17;41.58;102025.88;5068378;28;20110;-78
2022/03/02 10:36:01;;;;;;;22.90;10.32;;;;;;;11.20;40.37;102017.63;5071455;28;20151;-77
2022/03/02 10:38:52;;;;;;;23.13;10.07;;;;;;;11.38;39.68;102023.47;5068958;28;20041;-78
2022/03/02 10:41:20;;;;;;;22.63;10.77;;;;;;;11.51;40.21;102013.78;5061905;28;21896;-78
2022/03/02 10:43:57;;;;;;;23.95;10.93;;;;;;;11.68;40.54;102016.06;5057894;28;20053;-78
2022/03/02 10:46:26;;;;;;;18.15;7.38;;;;;;;11.77;37.94;102016.56;5062042;28;20045;-76
2022/03/02 10:49:11;;;;;;;23.45;9.82;;;;;;;11.92;37.79;102010.84;5055735;28;20053;-77
2022/03/02 10:51:39;;;;;;;22.67;10.23;;;;;;;12.03;38.47;102011.00;5067787;28;20473;-77
2022/03/02 10:54:07;;;;;;;21.38;10.00;;;;;;;12.09;37.42;102001.97;5055274;28;20733;-76
2022/03/02 10:56:39;;;;;;;22.48;9.68;;;;;;;12.24;37.01;102012.09;5065362;28;20139;-78
2022/03/02 10:59:08;;;;;;;22.23;9.15;;;;;;;12.36;36.91;102011.81;5063868;28;20052;-76
2022/03/02 11:01:36;;;;;;;17.33;7.30;;;;;;;12.49;35.79;102004.06;5062031;28;20497;-76
2022/03/02 11:04:07;;;;;;;21.38;9.65;;;;;;;12.74;35.85;102008.72;5062908;28;20064;-78
2022/03/02 11:06:35;;;;;;;20.50;8.68;;;;;;;12.83;35.27;101997.28;5067398;28;20585;-75
2022/03/02 11:09:03;;;;;;;24.90;10.00;;;;;;;12.98;36.27;101993.47;5059101;28;20458;-76
2022/03/02 11:11:33;;;;;;;21.20;10.32;;;;;;;13.24;35.13;101998.06;5055905;28;20057;-76
2022/03/02 11:14:00;;;;;;;21.83;9.55;;;;;;;13.87;32.44;101999.31;5068899;28;20428;-77
2022/03/02 11:16:26;;;;;;;21.60;9.23;;;;;;;14.55;33.16;101996.47;5062334;28;20149;-77
2022/03/02 11:18:53;;;;;;;22.30;10.07;;;;;;;15.20;32.13;102005.34;5063453;28;20143;-75
2022/03/02 11:21:31;;;;;;;21.25;10.43;;;;;;;15.41;30.06;101983.06;5064498;28;20044;-76
2022/03/02 11:24:01;;;;;;;21.20;9.38;;;;;;;15.59;30.18;101987.81;5065193;28;20123;-77